createdAt,value
2023-04-03T00:00:47.630Z,3.28
2023-04-03T00:03:33.897Z,3.20
2023-04-03T00:06:19.282Z,3.16
2023-04-03T00:09:04.537Z,3.16
2023-04-03T00:11:49.908Z,3.17
2023-04-03T00:14:35.418Z,3.10
2023-04-03T00:17:20.218Z,3.01
2023-04-03T00:20:06.522Z,2.97
2023-04-03T00:22:51.561Z,2.99
2023-04-03T00:25:37.414Z,3.02
2023-04-03T00:28:23.115Z,2.91
2023-04-03T00:31:08.205Z,2.77
2023-04-03T00:33:53.181Z,2.84
2023-04-03T00:36:38.531Z,2.84
2023-04-03T00:39:23.839Z,2.87
2023-04-03T00:42:09.327Z,2.78
2023-04-03T00:44:57.935Z,2.69
2023-04-03T00:47:43.237Z,2.80
2023-04-03T00:50:30.327Z,2.59
2023-04-03T00:53:30.332Z,2.62
2023-04-03T00:56:18.871Z,2.50
2023-04-03T00:59:13.018Z,2.58
2023-04-03T01:02:00.783Z,2.51
2023-04-03T01:04:46.091Z,2.47
2023-04-03T01:07:32.290Z,2.36
2023-04-03T01:10:19.157Z,2.27
2023-04-03T01:13:18.659Z,2.23
2023-04-03T01:16:06.308Z,2.28
2023-04-03T01:18:51.457Z,2.17
2023-04-03T01:22:05.854Z,2.18
2023-04-03T01:24:50.941Z,2.13
2023-04-03T01:27:35.882Z,2.10
2023-04-03T01:30:27.179Z,2.01
2023-04-03T01:33:12.655Z,2.02
2023-04-03T01:35:58.153Z,2.12
2023-04-03T01:38:43.353Z,2.07
2023-04-03T01:41:29.485Z,1.96
2023-04-03T01:44:15.340Z,1.86
2023-04-03T01:47:00.402Z,1.84
2023-04-03T01:49:45.450Z,1.70
2023-04-03T01:52:30.962Z,1.79
2023-04-03T01:55:16.361Z,1.72
2023-04-03T01:58:01.919Z,1.75
2023-04-03T02:00:46.909Z,1.75
2023-04-03T02:03:31.866Z,1.64
2023-04-03T02:06:17.049Z,1.70
2023-04-03T02:09:02.434Z,1.63
2023-04-03T02:11:47.679Z,1.54
2023-04-03T02:14:32.484Z,1.53
2023-04-03T02:17:17.875Z,1.57
2023-04-03T02:20:04.469Z,1.54
2023-04-03T02:22:49.896Z,1.51
2023-04-03T02:25:37.203Z,1.54
2023-04-03T02:28:23.611Z,1.46
2023-04-03T02:31:10.260Z,1.37
2023-04-03T02:33:55.335Z,1.39
2023-04-03T02:36:40.623Z,1.41
2023-04-03T02:39:26.214Z,1.42
2023-04-03T02:42:11.018Z,1.39
2023-04-03T02:44:56.264Z,1.36
2023-04-03T02:47:42.352Z,1.42
2023-04-03T02:50:27.719Z,1.23
2023-04-03T02:53:13.007Z,1.21
2023-04-03T02:55:57.796Z,1.22
2023-04-03T02:58:43.794Z,1.25
2023-04-03T03:01:28.760Z,1.14
2023-04-03T03:04:14.106Z,1.05
2023-04-03T03:06:59.557Z,1.22
2023-04-03T03:09:45.007Z,1.09
2023-04-03T03:12:31.995Z,1.14
2023-04-03T03:15:17.946Z,1.19
2023-04-03T03:18:03.241Z,0.95
2023-04-03T03:20:55.866Z,0.92
2023-04-03T03:23:41.246Z,0.93
2023-04-03T03:26:26.128Z,0.72
2023-04-03T03:29:11.489Z,0.90
2023-04-03T03:31:56.546Z,0.66
2023-04-03T03:34:41.784Z,0.74
2023-04-03T03:37:27.018Z,0.71
2023-04-03T03:40:12.635Z,0.72
2023-04-03T03:42:57.899Z,0.78
2023-04-03T03:45:42.712Z,0.81
2023-04-03T03:48:27.834Z,0.63
2023-04-03T03:51:13.074Z,0.59
2023-04-03T03:53:58.431Z,0.50
2023-04-03T03:56:43.755Z,0.55
2023-04-03T03:59:28.553Z,0.41
2023-04-03T04:02:13.524Z,0.59
2023-04-03T04:04:58.848Z,0.40
2023-04-03T04:07:43.886Z,0.46
2023-04-03T04:10:28.760Z,0.42
2023-04-03T04:13:14.340Z,0.38
2023-04-03T04:15:59.919Z,0.34
2023-04-03T04:18:45.116Z,0.26
2023-04-03T04:21:30.258Z,0.29
2023-04-03T04:24:15.783Z,0.27
2023-04-03T04:27:00.967Z,0.28
2023-04-03T04:29:46.003Z,0.16
2023-04-03T04:32:31.475Z,0.08
2023-04-03T04:35:17.146Z,-0.04
2023-04-03T04:38:02.468Z,0.03
2023-04-03T04:40:48.679Z,-0.10
2023-04-03T04:43:34.011Z,-0.04
2023-04-03T04:46:19.556Z,0.03
2023-04-03T04:49:05.080Z,-0.10
2023-04-03T04:51:52.225Z,-0.06
2023-04-03T04:54:38.144Z,-0.07
2023-04-03T04:57:23.586Z,-0.10
2023-04-03T05:00:09.504Z,-0.03
2023-04-03T05:02:54.436Z,-0.10
2023-04-03T05:05:39.774Z,-0.08
2023-04-03T05:08:25.502Z,-0.09
2023-04-03T05:11:10.825Z,-0.14
2023-04-03T05:13:56.581Z,-0.18
2023-04-03T05:16:42.019Z,-0.17
2023-04-03T05:19:27.432Z,-0.21
2023-04-03T05:22:12.784Z,-0.17
2023-04-03T05:24:57.809Z,-0.09
2023-04-03T05:27:43.007Z,-0.13
2023-04-03T05:30:28.063Z,-0.05
2023-04-03T05:33:13.921Z,-0.16
2023-04-03T05:36:04.749Z,-0.08
2023-04-03T05:38:50.093Z,-0.09
2023-04-03T05:41:35.533Z,-0.08
2023-04-03T05:44:20.605Z,-0.04
2023-04-03T05:47:05.929Z,0.01
2023-04-03T05:49:51.153Z,0.10
2023-04-03T05:52:40.964Z,0.16
2023-04-03T05:55:25.759Z,0.34
2023-04-03T05:58:11.690Z,0.27
2023-04-03T06:00:57.136Z,0.29
2023-04-03T06:03:42.636Z,0.50
2023-04-03T06:06:44.261Z,0.48
2023-04-03T06:09:29.825Z,0.44
2023-04-03T06:12:15.242Z,0.64
2023-04-03T06:15:00.353Z,0.80
2023-04-03T06:17:45.228Z,0.84
2023-04-03T06:20:30.796Z,0.87
2023-04-03T06:23:16.109Z,1.13
2023-04-03T06:26:01.464Z,1.38
2023-04-03T06:28:47.083Z,1.38
2023-04-03T06:31:32.480Z,1.77
2023-04-03T06:34:18.200Z,2.00
2023-04-03T06:37:03.403Z,2.17
2023-04-03T06:39:50.047Z,2.23
2023-04-03T06:42:35.218Z,2.84
2023-04-03T06:45:20.085Z,2.74
2023-04-03T06:48:05.612Z,2.62
2023-04-03T06:50:50.639Z,2.69
2023-04-03T06:53:36.268Z,2.93
2023-04-03T06:56:21.944Z,2.97
2023-04-03T06:59:07.322Z,3.01
2023-04-03T07:01:53.012Z,3.07
2023-04-03T07:04:38.236Z,3.56
2023-04-03T07:07:23.403Z,3.72
2023-04-03T07:10:09.312Z,3.77
2023-04-03T07:12:54.276Z,3.55
2023-04-03T07:15:39.919Z,4.02
2023-04-03T07:18:25.869Z,4.53
2023-04-03T07:21:10.824Z,4.12
2023-04-03T07:23:56.357Z,4.26
2023-04-03T07:26:41.449Z,4.73
2023-04-03T07:29:26.829Z,4.94
2023-04-03T07:32:12.004Z,5.35
2023-04-03T07:34:57.180Z,5.08
2023-04-03T07:37:42.058Z,5.21
2023-04-03T07:40:26.926Z,5.17
2023-04-03T07:43:12.365Z,5.39
2023-04-03T07:45:58.137Z,5.44
2023-04-03T07:48:43.124Z,5.54
2023-04-03T07:51:28.397Z,5.42
2023-04-03T07:54:13.945Z,6.10
2023-04-03T07:56:58.904Z,5.88
2023-04-03T07:59:44.272Z,5.72
2023-04-03T08:02:29.589Z,5.30
2023-04-03T08:05:15.014Z,5.72
2023-04-03T08:08:00.475Z,5.65
2023-04-03T08:10:49.379Z,5.79
2023-04-03T08:13:35.112Z,5.96
2023-04-03T08:16:23.343Z,6.30
2023-04-03T08:19:15.148Z,5.70
2023-04-03T08:22:04.404Z,6.00
2023-04-03T08:24:58.626Z,5.52
2023-04-03T08:27:44.877Z,6.33
2023-04-03T08:30:29.871Z,6.16
2023-04-03T08:33:15.159Z,6.28
2023-04-03T08:36:00.519Z,6.39
2023-04-03T08:38:45.905Z,6.49
2023-04-03T08:41:43.596Z,6.57
2023-04-03T08:44:51.038Z,6.82
2023-04-03T08:48:15.980Z,7.16
2023-04-03T08:51:10.881Z,7.00
2023-04-03T08:54:07.546Z,6.62
2023-04-03T08:56:53.742Z,7.15
2023-04-03T08:59:40.469Z,6.76
2023-04-03T09:02:49.653Z,6.70
2023-04-03T09:05:49.960Z,7.31
2023-04-03T09:08:47.295Z,7.76
2023-04-03T09:11:35.434Z,7.10
2023-04-03T09:14:29.913Z,6.95
2023-04-03T09:17:28.593Z,7.47
2023-04-03T09:20:39.156Z,7.43
2023-04-03T09:23:24.598Z,7.03
2023-04-03T09:26:15.267Z,7.31
2023-04-03T09:29:05.863Z,7.00
2023-04-03T09:31:57.085Z,7.10
2023-04-03T09:34:43.847Z,7.50
2023-04-03T09:37:39.010Z,7.78
2023-04-03T09:40:28.091Z,7.41
2023-04-03T09:43:33.023Z,7.69
2023-04-03T09:46:35.143Z,7.20
2023-04-03T09:49:20.743Z,7.45
2023-04-03T09:52:27.125Z,7.39
2023-04-03T09:55:39.101Z,7.22
2023-04-03T09:58:36.085Z,7.31
2023-04-03T10:01:35.819Z,7.20
2023-04-03T10:04:21.260Z,7.30
2023-04-03T10:07:31.741Z,7.29
2023-04-03T10:10:20.656Z,7.35
2023-04-03T10:13:10.576Z,7.38
2023-04-03T10:16:15.758Z,7.11
2023-04-03T10:19:21.205Z,6.93
2023-04-03T10:22:41.331Z,7.31
2023-04-03T10:25:44.799Z,7.30
2023-04-03T10:28:45.073Z,7.78
2023-04-03T10:31:50.147Z,7.47
2023-04-03T10:34:46.771Z,7.92
2023-04-03T10:38:14.468Z,7.34
2023-04-03T10:41:29.263Z,7.16
2023-04-03T10:44:15.096Z,7.76
2023-04-03T10:47:10.702Z,7.52
2023-04-03T10:50:24.726Z,7.40
2023-04-03T10:53:24.846Z,8.08
2023-04-03T10:56:42.567Z,8.41
2023-04-03T10:59:52.431Z,8.20
2023-04-03T11:02:51.860Z,7.93
2023-04-03T11:05:46.544Z,8.06
2023-04-03T11:08:57.999Z,8.58
2023-04-03T11:11:44.445Z,7.89
2023-04-03T11:14:33.772Z,7.27
2023-04-03T11:17:19.136Z,6.71
2023-04-03T11:20:13.678Z,6.33
2023-04-03T11:23:04.301Z,6.42
2023-04-03T11:25:54.496Z,6.72
2023-04-03T11:28:40.751Z,6.76
2023-04-03T11:31:41.588Z,7.34
2023-04-03T11:34:43.362Z,7.82
2023-04-03T11:37:42.668Z,8.15
2023-04-03T11:40:34.435Z,8.45
2023-04-03T11:43:32.562Z,8.86
2023-04-03T11:46:20.638Z,8.44
2023-04-03T11:49:05.827Z,8.41
2023-04-03T11:51:51.528Z,8.49
2023-04-03T11:54:48.628Z,7.43
2023-04-03T11:57:46.260Z,7.67
2023-04-03T12:00:51.896Z,7.16
2023-04-03T12:03:45.978Z,6.94
2023-04-03T12:06:34.367Z,7.50
2023-04-03T12:09:41.145Z,7.29
2023-04-03T12:12:36.518Z,7.38
2023-04-03T12:15:27.314Z,6.88
2023-04-03T12:18:40.788Z,8.17
2023-04-03T12:21:28.772Z,8.53
2023-04-03T12:24:17.274Z,8.21
2023-04-03T12:27:34.431Z,6.96
2023-04-03T12:30:26.105Z,8.11
2023-04-03T12:33:19.851Z,9.04
2023-04-03T12:36:13.731Z,8.71
2023-04-03T12:39:16.871Z,8.19
2023-04-03T12:42:40.744Z,7.61
2023-04-03T12:45:27.080Z,7.34
2023-04-03T12:48:25.080Z,8.03
2023-04-03T12:51:16.081Z,7.80
2023-04-03T12:54:32.957Z,7.02
2023-04-03T12:57:28.573Z,7.24
2023-04-03T13:00:33.591Z,7.08
2023-04-03T13:03:26.942Z,8.58
2023-04-03T13:06:19.945Z,9.55
2023-04-03T13:09:05.696Z,10.39
2023-04-03T13:11:57.581Z,9.84
2023-04-03T13:14:56.802Z,10.01
2023-04-03T13:17:44.083Z,9.24
2023-04-03T13:20:33.367Z,9.36
2023-04-03T13:23:20.792Z,9.62
2023-04-03T13:26:07.707Z,9.68
2023-04-03T13:28:55.235Z,10.29
2023-04-03T13:31:40.962Z,10.90
2023-04-03T13:34:36.619Z,10.51
2023-04-03T13:37:34.470Z,10.49
2023-04-03T13:40:19.815Z,9.70
2023-04-03T13:43:19.998Z,10.31
2023-04-03T13:46:11.750Z,10.54
2023-04-03T13:48:58.051Z,10.66
2023-04-03T13:51:43.259Z,10.31
2023-04-03T13:54:38.524Z,10.46
2023-04-03T13:57:24.229Z,9.54
2023-04-03T14:00:53.014Z,11.18
2023-04-03T14:03:45.982Z,10.05
2023-04-03T14:06:31.115Z,10.15
2023-04-03T14:09:18.381Z,10.05
2023-04-03T14:12:31.901Z,9.28
2023-04-03T14:15:23.058Z,9.44
2023-04-03T14:18:12.421Z,8.94
2023-04-03T14:20:57.826Z,8.42
2023-04-03T14:23:43.478Z,8.57
2023-04-03T14:26:29.688Z,8.49
2023-04-03T14:29:15.533Z,8.70
2023-04-03T14:32:13.659Z,8.95
2023-04-03T14:35:03.310Z,8.91
2023-04-03T14:37:49.795Z,8.65
2023-04-03T14:40:34.914Z,9.32
2023-04-03T14:43:21.122Z,10.14
2023-04-03T14:46:20.596Z,9.32
2023-04-03T14:49:19.176Z,9.35
2023-04-03T14:52:05.226Z,9.80
2023-04-03T14:54:51.420Z,9.16
2023-04-03T14:57:39.280Z,10.15
2023-04-03T15:00:24.676Z,10.32
2023-04-03T15:03:22.170Z,10.20
2023-04-03T15:06:13.390Z,9.75
2023-04-03T15:08:58.556Z,9.09
2023-04-03T15:11:44.052Z,9.20
2023-04-03T15:14:37.087Z,9.89
2023-04-03T15:17:28.019Z,9.54
2023-04-03T15:20:16.428Z,10.12
2023-04-03T15:23:02.439Z,10.54
2023-04-03T15:25:49.577Z,9.73
2023-04-03T15:28:36.240Z,9.53
2023-04-03T15:31:21.619Z,9.68
2023-04-03T15:34:06.801Z,9.04
2023-04-03T15:36:52.307Z,9.37
2023-04-03T15:39:39.971Z,9.05
2023-04-03T15:42:25.209Z,9.87
2023-04-03T15:45:11.252Z,9.31
2023-04-03T15:47:56.548Z,8.72
2023-04-03T15:50:42.409Z,8.58
2023-04-03T15:53:27.881Z,8.60
2023-04-03T15:56:13.381Z,8.91
2023-04-03T15:58:58.933Z,8.91
2023-04-03T16:01:44.436Z,8.84
2023-04-03T16:04:29.968Z,8.43
2023-04-03T16:07:16.133Z,8.34
2023-04-03T16:10:01.783Z,8.09
2023-04-03T16:12:47.233Z,7.79
2023-04-03T16:15:33.791Z,7.60
2023-04-03T16:18:19.293Z,7.93
2023-04-03T16:21:04.437Z,7.82
2023-04-03T16:23:49.777Z,7.78
2023-04-03T16:26:34.954Z,7.89
2023-04-03T16:29:20.367Z,8.80
2023-04-03T16:32:05.754Z,9.02
2023-04-03T16:34:51.301Z,8.63
2023-04-03T16:37:37.447Z,9.52
2023-04-03T16:40:22.552Z,9.07
2023-04-03T16:43:08.061Z,8.99
2023-04-03T16:45:53.585Z,8.36
2023-04-03T16:48:39.118Z,8.53
2023-04-03T16:51:24.366Z,8.09
2023-04-03T16:54:09.691Z,7.79
2023-04-03T16:56:54.606Z,7.46
2023-04-03T16:59:39.865Z,7.41
2023-04-03T17:02:25.894Z,7.62
2023-04-03T17:05:11.252Z,7.93
2023-04-03T17:07:56.540Z,7.51
2023-04-03T17:10:42.015Z,7.69
2023-04-03T17:13:27.490Z,7.66
2023-04-03T17:16:15.960Z,7.64
2023-04-03T17:19:01.761Z,7.44
2023-04-03T17:21:47.039Z,7.23
2023-04-03T17:24:33.298Z,7.18
2023-04-03T17:27:18.462Z,7.05
2023-04-03T17:30:05.303Z,6.91
2023-04-03T17:32:50.907Z,6.95
2023-04-03T17:35:35.931Z,6.73
2023-04-03T17:38:20.874Z,6.78
2023-04-03T17:41:08.044Z,6.93
2023-04-03T17:43:53.542Z,6.73
2023-04-03T17:46:38.712Z,6.49
2023-04-03T17:49:24.036Z,6.54
2023-04-03T17:52:09.439Z,6.48
2023-04-03T17:54:54.804Z,6.56
2023-04-03T17:57:39.929Z,6.50
2023-04-03T18:00:25.446Z,6.33
2023-04-03T18:03:10.442Z,6.40
2023-04-03T18:05:56.052Z,6.50
2023-04-03T18:08:46.237Z,6.23
2023-04-03T18:11:31.775Z,6.13
2023-04-03T18:14:21.175Z,6.16
2023-04-03T18:17:07.138Z,6.32
2023-04-03T18:19:52.886Z,6.23
2023-04-03T18:22:37.938Z,6.08
2023-04-03T18:25:23.371Z,6.00
2023-04-03T18:28:09.516Z,6.06
2023-04-03T18:30:54.916Z,5.98
2023-04-03T18:33:40.261Z,5.90
2023-04-03T18:36:27.098Z,5.88
2023-04-03T18:39:12.485Z,5.67
2023-04-03T18:42:00.305Z,5.79
2023-04-03T18:44:49.755Z,5.77
2023-04-03T18:47:34.822Z,5.72
2023-04-03T18:50:20.483Z,5.74
2023-04-03T18:53:06.127Z,5.66
2023-04-03T18:55:51.514Z,5.49
2023-04-03T18:58:36.853Z,5.45
2023-04-03T19:01:22.505Z,5.57
2023-04-03T19:04:08.346Z,5.58
2023-04-03T19:06:53.591Z,5.50
2023-04-03T19:09:39.803Z,5.40
2023-04-03T19:12:24.853Z,5.30
2023-04-03T19:15:11.965Z,5.21
2023-04-03T19:17:57.190Z,5.21
2023-04-03T19:20:42.561Z,5.12
2023-04-03T19:23:27.535Z,5.21
2023-04-03T19:26:13.485Z,5.06
2023-04-03T19:28:58.607Z,5.11
2023-04-03T19:31:43.962Z,5.19
2023-04-03T19:34:29.402Z,5.18
2023-04-03T19:37:14.836Z,5.12
2023-04-03T19:40:00.353Z,4.98
2023-04-03T19:42:45.531Z,4.74
2023-04-03T19:45:30.532Z,4.62
2023-04-03T19:48:16.023Z,4.65
2023-04-03T19:51:01.114Z,4.50
2023-04-03T19:53:46.422Z,4.48
2023-04-03T19:56:31.892Z,4.36
2023-04-03T19:59:17.056Z,4.48
2023-04-03T20:02:02.576Z,4.60
2023-04-03T20:04:48.187Z,4.59
2023-04-03T20:07:33.375Z,4.64
2023-04-03T20:10:18.786Z,4.38
2023-04-03T20:13:04.113Z,4.48
2023-04-03T20:15:49.230Z,4.37
2023-04-03T20:18:35.359Z,4.24
2023-04-03T20:21:20.827Z,4.10
2023-04-03T20:24:09.282Z,4.10
2023-04-03T20:26:55.697Z,4.02
2023-04-03T20:29:40.866Z,4.02
2023-04-03T20:32:25.894Z,3.96
2023-04-03T20:35:11.319Z,3.95
2023-04-03T20:37:57.024Z,4.01
2023-04-03T20:40:42.524Z,3.99
2023-04-03T20:43:28.176Z,3.83
2023-04-03T20:46:13.744Z,3.80
2023-04-03T20:48:59.105Z,3.66
2023-04-03T20:51:44.574Z,3.63
2023-04-03T20:54:29.847Z,3.68
2023-04-03T20:57:15.050Z,3.67
2023-04-03T21:00:00.608Z,3.67
2023-04-03T21:02:46.779Z,3.68
2023-04-03T21:05:31.985Z,3.46
2023-04-03T21:08:55.120Z,3.38
2023-04-03T21:12:18.100Z,3.23
2023-04-03T21:15:40.775Z,3.11
2023-04-03T21:19:07.984Z,3.03
2023-04-03T21:21:53.614Z,3.14
2023-04-03T21:24:38.830Z,3.07
2023-04-03T21:27:24.000Z,2.94
2023-04-03T21:30:09.688Z,2.87
2023-04-03T21:32:55.113Z,2.81
2023-04-03T21:35:40.425Z,2.79
2023-04-03T21:38:25.849Z,2.64
2023-04-03T21:41:11.306Z,2.50
2023-04-03T21:43:56.424Z,2.48
2023-04-03T21:46:41.589Z,2.43
2023-04-03T21:49:26.933Z,2.42
2023-04-03T21:52:12.416Z,2.36
2023-04-03T21:54:57.771Z,2.39
2023-04-03T21:57:43.285Z,2.34
2023-04-03T22:00:28.837Z,2.33
2023-04-03T22:03:19.046Z,2.30
2023-04-03T22:06:04.812Z,2.32
2023-04-03T22:08:49.900Z,2.26
2023-04-03T22:11:35.296Z,2.18
2023-04-03T22:14:20.878Z,2.17
2023-04-03T22:17:06.056Z,2.11
2023-04-03T22:19:51.633Z,2.05
2023-04-03T22:22:36.959Z,2.01
2023-04-03T22:25:22.229Z,1.83
2023-04-03T22:28:07.620Z,1.82
2023-04-03T22:30:53.608Z,1.85
2023-04-03T22:33:39.046Z,1.84
2023-04-03T22:36:23.966Z,1.73
2023-04-03T22:39:09.443Z,1.80
2023-04-03T22:41:55.075Z,1.77
2023-04-03T22:44:40.442Z,1.63
2023-04-03T22:47:26.030Z,1.56
2023-04-03T22:50:11.313Z,1.49
2023-04-03T22:52:56.673Z,1.43
2023-04-03T22:55:44.057Z,1.43
2023-04-03T22:58:29.474Z,1.41
2023-04-03T23:01:14.977Z,1.34
2023-04-03T23:04:00.533Z,1.23
2023-04-03T23:06:45.829Z,1.23
2023-04-03T23:09:31.295Z,1.16
2023-04-03T23:12:16.662Z,1.11
2023-04-03T23:15:02.173Z,1.05
2023-04-03T23:17:47.978Z,1.08
2023-04-03T23:20:33.327Z,0.97
2023-04-03T23:23:18.831Z,0.93
2023-04-03T23:26:04.302Z,0.92
2023-04-03T23:28:49.501Z,1.01
2023-04-03T23:31:34.941Z,0.89
2023-04-03T23:34:20.269Z,0.84
2023-04-03T23:37:05.578Z,0.71
2023-04-03T23:39:50.630Z,0.83
2023-04-03T23:42:36.010Z,0.81
2023-04-03T23:45:21.398Z,0.71
2023-04-03T23:48:07.890Z,0.89
2023-04-03T23:50:52.936Z,0.85
2023-04-03T23:53:38.410Z,0.82
2023-04-03T23:56:24.029Z,0.80
2023-04-03T23:59:09.535Z,0.73
